sensor_id;sensor_type;location;lat;lon;timestamp;pressure;altitude;pressure_sealevel;temperature;humidity
54290;BME280;40196;39.774;2.728;2022-09-09T00:00:17;101070.63;;;26.59;57.34
54290;BME280;40196;39.774;2.728;2022-09-09T00:03:07;101068.50;;;26.42;57.98
54290;BME280;40196;39.774;2.728;2022-09-09T00:05:31;101077.66;;;26.29;58.17
54290;BME280;40196;39.774;2.728;2022-09-09T00:07:59;101070.94;;;26.32;58.22
54290;BME280;40196;39.774;2.728;2022-09-09T00:15:30;101072.66;;;26.45;57.85
54290;BME280;40196;39.774;2.728;2022-09-09T00:18:05;101079.75;;;26.27;58.14
54290;BME280;40196;39.774;2.728;2022-09-09T00:23:11;101075.53;;;26.31;57.96
54290;BME280;40196;39.774;2.728;2022-09-09T00:25:40;101068.97;;;26.39;57.47
54290;BME280;40196;39.774;2.728;2022-09-09T00:28:30;101065.22;;;26.40;57.36
54290;BME280;40196;39.774;2.728;2022-09-09T00:30:59;101068.94;;;26.27;57.29
54290;BME280;40196;39.774;2.728;2022-09-09T00:33:26;101063.44;;;26.34;57.18
54290;BME280;40196;39.774;2.728;2022-09-09T00:35:52;101057.44;;;26.32;57.30
54290;BME280;40196;39.774;2.728;2022-09-09T00:38:23;101063.91;;;26.31;57.61
54290;BME280;40196;39.774;2.728;2022-09-09T00:48:54;101063.69;;;25.95;58.47
54290;BME280;40196;39.774;2.728;2022-09-09T00:51:20;101056.72;;;26.06;57.99
54290;BME280;40196;39.774;2.728;2022-09-09T00:56:17;101059.81;;;25.91;58.99
54290;BME280;40196;39.774;2.728;2022-09-09T01:01:37;101060.09;;;25.83;58.89
54290;BME280;40196;39.774;2.728;2022-09-09T01:04:14;101055.81;;;25.75;59.22
54290;BME280;40196;39.774;2.728;2022-09-09T01:06:41;101058.72;;;25.74;59.34
54290;BME280;40196;39.774;2.728;2022-09-09T01:12:02;101072.56;;;25.84;59.19
54290;BME280;40196;39.774;2.728;2022-09-09T01:17:03;101063.38;;;25.85;59.00
54290;BME280;40196;39.774;2.728;2022-09-09T01:22:03;101063.47;;;25.78;59.32
54290;BME280;40196;39.774;2.728;2022-09-09T01:24:45;101059.69;;;25.80;59.31
54290;BME280;40196;39.774;2.728;2022-09-09T01:27:16;101060.53;;;25.62;59.58
54290;BME280;40196;39.774;2.728;2022-09-09T01:29:43;101058.88;;;25.61;59.54
54290;BME280;40196;39.774;2.728;2022-09-09T01:34:52;101056.50;;;25.71;59.32
54290;BME280;40196;39.774;2.728;2022-09-09T01:37:17;101050.09;;;25.65;58.94
54290;BME280;40196;39.774;2.728;2022-09-09T01:39:43;101052.34;;;25.68;59.26
54290;BME280;40196;39.774;2.728;2022-09-09T01:42:10;101059.19;;;25.71;58.91
54290;BME280;40196;39.774;2.728;2022-09-09T01:44:36;101058.72;;;25.74;58.68
54290;BME280;40196;39.774;2.728;2022-09-09T01:47:03;101047.09;;;25.55;59.38
54290;BME280;40196;39.774;2.728;2022-09-09T01:49:28;101049.25;;;25.46;59.34
54290;BME280;40196;39.774;2.728;2022-09-09T01:51:55;101050.03;;;25.53;59.47
54290;BME280;40196;39.774;2.728;2022-09-09T01:54:21;101059.03;;;25.47;59.62
54290;BME280;40196;39.774;2.728;2022-09-09T02:04:32;101058.69;;;25.37;59.29
54290;BME280;40196;39.774;2.728;2022-09-09T02:07:00;101055.34;;;25.16;59.74
54290;BME280;40196;39.774;2.728;2022-09-09T02:09:26;101053.41;;;24.67;61.69
54290;BME280;40196;39.774;2.728;2022-09-09T02:12:08;101051.03;;;24.84;61.39
54290;BME280;40196;39.774;2.728;2022-09-09T02:14:39;101052.81;;;24.96;61.13
54290;BME280;40196;39.774;2.728;2022-09-09T02:17:10;101048.84;;;24.99;60.63
54290;BME280;40196;39.774;2.728;2022-09-09T02:19:40;101052.03;;;24.89;60.97
54290;BME280;40196;39.774;2.728;2022-09-09T02:22:11;101047.34;;;24.78;60.95
54290;BME280;40196;39.774;2.728;2022-09-09T02:24:37;101049.97;;;24.85;61.04
54290;BME280;40196;39.774;2.728;2022-09-09T02:27:03;101052.66;;;24.85;60.92
54290;BME280;40196;39.774;2.728;2022-09-09T02:29:33;101048.72;;;24.87;60.71
54290;BME280;40196;39.774;2.728;2022-09-09T02:32:00;101045.81;;;24.89;60.86
54290;BME280;40196;39.774;2.728;2022-09-09T02:34:28;101045.75;;;24.95;60.75
54290;BME280;40196;39.774;2.728;2022-09-09T02:36:53;101045.22;;;24.87;61.05
54290;BME280;40196;39.774;2.728;2022-09-09T02:39:20;101047.94;;;24.80;61.31
54290;BME280;40196;39.774;2.728;2022-09-09T02:41:46;101047.59;;;24.70;61.57
54290;BME280;40196;39.774;2.728;2022-09-09T02:44:16;101051.03;;;24.84;61.47
54290;BME280;40196;39.774;2.728;2022-09-09T02:51:53;101049.53;;;24.88;61.08
54290;BME280;40196;39.774;2.728;2022-09-09T02:54:28;101049.97;;;24.85;60.67
54290;BME280;40196;39.774;2.728;2022-09-09T02:56:59;101045.03;;;24.82;60.62
54290;BME280;40196;39.774;2.728;2022-09-09T02:59:27;101046.66;;;24.83;60.58
54290;BME280;40196;39.774;2.728;2022-09-09T03:01:53;101047.66;;;24.88;60.45
54290;BME280;40196;39.774;2.728;2022-09-09T03:04:18;101052.63;;;24.91;60.22
54290;BME280;40196;39.774;2.728;2022-09-09T03:06:43;101042.66;;;24.92;60.04
54290;BME280;40196;39.774;2.728;2022-09-09T03:09:09;101046.63;;;24.89;59.94
54290;BME280;40196;39.774;2.728;2022-09-09T03:11:35;101049.13;;;24.91;60.10
54290;BME280;40196;39.774;2.728;2022-09-09T03:14:01;101047.22;;;24.66;60.36
54290;BME280;40196;39.774;2.728;2022-09-09T03:16:26;101047.88;;;24.62;60.60
54290;BME280;40196;39.774;2.728;2022-09-09T03:18:52;101041.91;;;24.46;61.23
54290;BME280;40196;39.774;2.728;2022-09-09T03:21:17;101050.41;;;24.50;60.87
54290;BME280;40196;39.774;2.728;2022-09-09T03:23:43;101048.50;;;24.57;60.63
54290;BME280;40196;39.774;2.728;2022-09-09T03:26:10;101052.00;;;24.64;60.45
54290;BME280;40196;39.774;2.728;2022-09-09T03:28:35;101047.41;;;24.65;60.50
54290;BME280;40196;39.774;2.728;2022-09-09T03:31:01;101046.41;;;24.59;60.50
54290;BME280;40196;39.774;2.728;2022-09-09T03:33:27;101045.53;;;24.65;60.18
54290;BME280;40196;39.774;2.728;2022-09-09T03:35:53;101047.41;;;24.71;60.24
54290;BME280;40196;39.774;2.728;2022-09-09T03:38:21;101047.03;;;24.61;60.27
54290;BME280;40196;39.774;2.728;2022-09-09T03:40:53;101049.59;;;24.43;60.74
54290;BME280;40196;39.774;2.728;2022-09-09T03:43:22;101050.91;;;24.33;61.33
54290;BME280;40196;39.774;2.728;2022-09-09T03:45:48;101045.84;;;24.50;61.12
54290;BME280;40196;39.774;2.728;2022-09-09T03:48:14;101054.97;;;24.56;60.85
54290;BME280;40196;39.774;2.728;2022-09-09T03:50:50;101051.03;;;24.45;61.01
54290;BME280;40196;39.774;2.728;2022-09-09T03:53:16;101043.63;;;24.34;61.32
54290;BME280;40196;39.774;2.728;2022-09-09T03:55:45;101050.03;;;24.39;61.21
54290;BME280;40196;39.774;2.728;2022-09-09T03:58:11;101052.91;;;24.45;60.98
54290;BME280;40196;39.774;2.728;2022-09-09T04:00:37;101038.22;;;24.40;61.31
54290;BME280;40196;39.774;2.728;2022-09-09T04:03:05;101046.03;;;24.49;60.95
54290;BME280;40196;39.774;2.728;2022-09-09T04:05:31;101045.34;;;24.21;62.11
54290;BME280;40196;39.774;2.728;2022-09-09T04:07:59;101032.41;;;23.98;62.81
54290;BME280;40196;39.774;2.728;2022-09-09T04:10:24;101034.38;;;24.16;62.46
54290;BME280;40196;39.774;2.728;2022-09-09T04:12:49;101048.25;;;24.20;62.57
54290;BME280;40196;39.774;2.728;2022-09-09T04:15:15;101044.53;;;24.21;62.49
54290;BME280;40196;39.774;2.728;2022-09-09T04:17:40;101047.50;;;24.13;62.46
54290;BME280;40196;39.774;2.728;2022-09-09T04:20:05;101043.00;;;23.93;63.16
54290;BME280;40196;39.774;2.728;2022-09-09T04:22:36;101042.97;;;24.00;63.40
54290;BME280;40196;39.774;2.728;2022-09-09T04:25:03;101039.56;;;24.18;62.87
54290;BME280;40196;39.774;2.728;2022-09-09T04:27:29;101036.63;;;24.26;62.55
54290;BME280;40196;39.774;2.728;2022-09-09T04:29:54;101045.31;;;24.28;62.46
54290;BME280;40196;39.774;2.728;2022-09-09T04:32:20;101043.06;;;24.25;62.51
54290;BME280;40196;39.774;2.728;2022-09-09T04:34:46;101040.94;;;23.95;63.55
54290;BME280;40196;39.774;2.728;2022-09-09T04:37:13;101040.56;;;23.78;64.21
54290;BME280;40196;39.774;2.728;2022-09-09T04:39:39;101043.00;;;23.93;63.78
54290;BME280;40196;39.774;2.728;2022-09-09T04:42:04;101046.22;;;24.09;63.14
54290;BME280;40196;39.774;2.728;2022-09-09T04:44:29;101044.75;;;24.19;62.87
54290;BME280;40196;39.774;2.728;2022-09-09T04:46:55;101051.22;;;24.12;63.29
54290;BME280;40196;39.774;2.728;2022-09-09T04:49:21;101046.63;;;24.19;63.01
54290;BME280;40196;39.774;2.728;2022-09-09T04:51:48;101052.00;;;24.19;62.83
54290;BME280;40196;39.774;2.728;2022-09-09T04:54:14;101048.31;;;24.07;63.45
54290;BME280;40196;39.774;2.728;2022-09-09T04:56:39;101052.44;;;24.16;63.36
54290;BME280;40196;39.774;2.728;2022-09-09T04:59:06;101051.34;;;24.24;63.13
54290;BME280;40196;39.774;2.728;2022-09-09T05:01:32;101054.66;;;24.26;63.26
54290;BME280;40196;39.774;2.728;2022-09-09T05:03:57;101055.72;;;24.25;63.12
54290;BME280;40196;39.774;2.728;2022-09-09T05:06:22;101052.78;;;24.26;63.08
54290;BME280;40196;39.774;2.728;2022-09-09T05:08:48;101057.00;;;24.15;63.11
54290;BME280;40196;39.774;2.728;2022-09-09T05:11:18;101058.63;;;24.23;63.11
54290;BME280;40196;39.774;2.728;2022-09-09T05:13:44;101052.19;;;24.24;63.44
54290;BME280;40196;39.774;2.728;2022-09-09T05:16:09;101058.88;;;24.15;63.54
54290;BME280;40196;39.774;2.728;2022-09-09T05:18:36;101057.09;;;23.95;64.18
54290;BME280;40196;39.774;2.728;2022-09-09T05:21:02;101058.31;;;23.99;64.01
54290;BME280;40196;39.774;2.728;2022-09-09T05:23:27;101055.38;;;24.08;63.98
54290;BME280;40196;39.774;2.728;2022-09-09T05:25:56;101056.56;;;24.18;64.00
54290;BME280;40196;39.774;2.728;2022-09-09T05:28:22;101059.25;;;24.18;64.30
54290;BME280;40196;39.774;2.728;2022-09-09T05:30:54;101055.13;;;24.23;63.70
54290;BME280;40196;39.774;2.728;2022-09-09T05:33:20;101049.47;;;24.24;63.92
54290;BME280;40196;39.774;2.728;2022-09-09T05:35:46;101056.81;;;24.10;64.33
54290;BME280;40196;39.774;2.728;2022-09-09T05:38:11;101050.00;;;24.01;64.63
54290;BME280;40196;39.774;2.728;2022-09-09T05:40:36;101061.16;;;24.11;64.29
54290;BME280;40196;39.774;2.728;2022-09-09T05:43:01;101063.00;;;24.11;64.52
54290;BME280;40196;39.774;2.728;2022-09-09T05:45:27;101073.56;;;24.19;64.55
54290;BME280;40196;39.774;2.728;2022-09-09T05:47:52;101072.72;;;24.25;64.62
54290;BME280;40196;39.774;2.728;2022-09-09T05:50:18;101085.13;;;24.26;64.60
54290;BME280;40196;39.774;2.728;2022-09-09T05:52:43;101083.28;;;24.27;64.37
54290;BME280;40196;39.774;2.728;2022-09-09T05:55:09;101082.84;;;24.30;64.06
54290;BME280;40196;39.774;2.728;2022-09-09T05:57:34;101085.13;;;24.33;64.18
54290;BME280;40196;39.774;2.728;2022-09-09T06:00:00;101082.78;;;23.98;65.06
54290;BME280;40196;39.774;2.728;2022-09-09T06:02:25;101083.19;;;24.01;65.09
54290;BME280;40196;39.774;2.728;2022-09-09T06:04:50;101086.13;;;23.93;65.64
54290;BME280;40196;39.774;2.728;2022-09-09T06:07:16;101084.97;;;24.14;64.97
54290;BME280;40196;39.774;2.728;2022-09-09T06:09:42;101082.84;;;24.30;64.45
54290;BME280;40196;39.774;2.728;2022-09-09T06:12:07;101085.06;;;24.39;64.46
54290;BME280;40196;39.774;2.728;2022-09-09T06:14:33;101102.47;;;24.44;64.15
54290;BME280;40196;39.774;2.728;2022-09-09T06:16:58;101095.22;;;24.51;63.87
54290;BME280;40196;39.774;2.728;2022-09-09T06:19:26;101090.44;;;24.53;64.39
54290;BME280;40196;39.774;2.728;2022-09-09T06:21:51;101094.13;;;24.58;64.89
54290;BME280;40196;39.774;2.728;2022-09-09T06:24:17;101093.88;;;24.67;64.94
54290;BME280;40196;39.774;2.728;2022-09-09T06:26:44;101098.44;;;24.66;64.97
54290;BME280;40196;39.774;2.728;2022-09-09T06:29:10;101103.44;;;24.69;65.05
54290;BME280;40196;39.774;2.728;2022-09-09T06:31:36;101105.03;;;24.77;65.06
54290;BME280;40196;39.774;2.728;2022-09-09T06:34:03;101112.47;;;24.82;64.90
54290;BME280;40196;39.774;2.728;2022-09-09T06:36:30;101108.34;;;24.79;64.86
54290;BME280;40196;39.774;2.728;2022-09-09T06:38:56;101106.88;;;24.83;65.09
54290;BME280;40196;39.774;2.728;2022-09-09T06:41:22;101114.69;;;24.91;65.27
54290;BME280;40196;39.774;2.728;2022-09-09T06:43:47;101111.31;;;24.96;64.57
54290;BME280;40196;39.774;2.728;2022-09-09T06:46:14;101106.53;;;24.98;64.80
54290;BME280;40196;39.774;2.728;2022-09-09T06:48:40;101110.50;;;24.95;64.73
54290;BME280;40196;39.774;2.728;2022-09-09T06:51:13;101114.22;;;24.94;64.83
54290;BME280;40196;39.774;2.728;2022-09-09T06:53:39;101112.81;;;24.92;64.93
54290;BME280;40196;39.774;2.728;2022-09-09T06:58:39;101111.72;;;24.99;65.15
54290;BME280;40196;39.774;2.728;2022-09-09T07:01:09;101113.31;;;25.07;64.95
54290;BME280;40196;39.774;2.728;2022-09-09T07:03:35;101112.91;;;25.10;64.85
54290;BME280;40196;39.774;2.728;2022-09-09T07:06:00;101115.13;;;25.13;65.10
54290;BME280;40196;39.774;2.728;2022-09-09T07:08:26;101116.19;;;25.12;65.09
54290;BME280;40196;39.774;2.728;2022-09-09T07:10:52;101118.66;;;25.14;65.52
54290;BME280;40196;39.774;2.728;2022-09-09T07:13:24;101116.88;;;25.33;65.08
54290;BME280;40196;39.774;2.728;2022-09-09T07:15:50;101115.19;;;25.38;65.07
54290;BME280;40196;39.774;2.728;2022-09-09T07:18:16;101121.56;;;25.44;64.91
54290;BME280;40196;39.774;2.728;2022-09-09T07:20:41;101118.97;;;25.56;64.11
54290;BME280;40196;39.774;2.728;2022-09-09T07:23:06;101114.47;;;25.68;63.55
54290;BME280;40196;39.774;2.728;2022-09-09T07:25:32;101123.13;;;25.77;62.70
54290;BME280;40196;39.774;2.728;2022-09-09T07:27:57;101115.09;;;25.89;62.68
54290;BME280;40196;39.774;2.728;2022-09-09T07:30:22;101115.81;;;26.03;62.37
54290;BME280;40196;39.774;2.728;2022-09-09T07:32:50;101105.75;;;26.10;61.69
54290;BME280;40196;39.774;2.728;2022-09-09T07:35:16;101115.94;;;26.26;61.15
54290;BME280;40196;39.774;2.728;2022-09-09T07:37:41;101120.75;;;26.43;60.38
54290;BME280;40196;39.774;2.728;2022-09-09T07:40:06;101125.59;;;26.52;58.55
54290;BME280;40196;39.774;2.728;2022-09-09T07:42:32;101117.09;;;26.67;58.14
54290;BME280;40196;39.774;2.728;2022-09-09T07:44:57;101126.47;;;26.83;57.42
54290;BME280;40196;39.774;2.728;2022-09-09T07:47:23;101124.38;;;26.97;56.97
54290;BME280;40196;39.774;2.728;2022-09-09T07:49:49;101124.41;;;27.09;56.02
54290;BME280;40196;39.774;2.728;2022-09-09T07:52:15;101125.00;;;27.23;54.67
54290;BME280;40196;39.774;2.728;2022-09-09T07:54:41;101126.44;;;27.37;54.28
54290;BME280;40196;39.774;2.728;2022-09-09T07:57:07;101141.09;;;27.48;54.58
54290;BME280;40196;39.774;2.728;2022-09-09T07:59:32;101141.66;;;27.62;54.54
54290;BME280;40196;39.774;2.728;2022-09-09T08:01:57;101145.69;;;27.71;54.25
54290;BME280;40196;39.774;2.728;2022-09-09T08:04:23;101146.72;;;27.82;55.09
54290;BME280;40196;39.774;2.728;2022-09-09T08:06:51;101144.94;;;27.87;56.00
54290;BME280;40196;39.774;2.728;2022-09-09T08:09:18;101148.16;;;27.96;56.45
54290;BME280;40196;39.774;2.728;2022-09-09T08:11:43;101149.66;;;28.04;56.49
54290;BME280;40196;39.774;2.728;2022-09-09T08:14:09;101153.66;;;28.13;56.57
54290;BME280;40196;39.774;2.728;2022-09-09T08:16:36;101155.91;;;28.16;56.48
54290;BME280;40196;39.774;2.728;2022-09-09T08:19:02;101147.38;;;28.24;56.20
54290;BME280;40196;39.774;2.728;2022-09-09T08:21:29;101143.81;;;28.36;56.93
54290;BME280;40196;39.774;2.728;2022-09-09T08:23:55;101151.34;;;28.45;56.97
54290;BME280;40196;39.774;2.728;2022-09-09T08:26:31;101148.03;;;28.55;57.17
54290;BME280;40196;39.774;2.728;2022-09-09T08:28:57;101149.03;;;28.66;56.74
54290;BME280;40196;39.774;2.728;2022-09-09T08:31:24;101149.47;;;28.75;56.23
54290;BME280;40196;39.774;2.728;2022-09-09T08:33:50;101153.13;;;28.80;55.60
54290;BME280;40196;39.774;2.728;2022-09-09T08:36:19;101151.91;;;28.88;55.33
54290;BME280;40196;39.774;2.728;2022-09-09T08:38:48;101158.06;;;29.00;54.82
54290;BME280;40196;39.774;2.728;2022-09-09T08:43:47;101159.81;;;29.06;55.09
54290;BME280;40196;39.774;2.728;2022-09-09T08:49:06;101168.75;;;29.19;54.80
54290;BME280;40196;39.774;2.728;2022-09-09T08:51:37;101169.41;;;29.26;54.00
54290;BME280;40196;39.774;2.728;2022-09-09T08:54:03;101164.06;;;29.31;54.15
54290;BME280;40196;39.774;2.728;2022-09-09T08:56:30;101153.69;;;29.45;52.83
54290;BME280;40196;39.774;2.728;2022-09-09T08:58:56;101160.34;;;29.54;53.21
54290;BME280;40196;39.774;2.728;2022-09-09T09:04:17;101153.84;;;29.72;51.25
54290;BME280;40196;39.774;2.728;2022-09-09T09:07:07;101159.16;;;29.67;51.94
54290;BME280;40196;39.774;2.728;2022-09-09T09:12:11;101163.78;;;29.83;52.87
54290;BME280;40196;39.774;2.728;2022-09-09T09:14:39;101165.59;;;29.95;52.82
54290;BME280;40196;39.774;2.728;2022-09-09T09:17:06;101166.28;;;30.07;52.41
54290;BME280;40196;39.774;2.728;2022-09-09T09:19:35;101170.22;;;30.16;52.22
54290;BME280;40196;39.774;2.728;2022-09-09T09:22:22;101161.66;;;30.30;52.37
54290;BME280;40196;39.774;2.728;2022-09-09T09:24:57;101166.94;;;30.36;52.57
54290;BME280;40196;39.774;2.728;2022-09-09T09:27:32;101174.34;;;30.41;51.63
54290;BME280;40196;39.774;2.728;2022-09-09T09:29:59;101167.44;;;30.33;52.88
54290;BME280;40196;39.774;2.728;2022-09-09T09:32:24;101177.13;;;30.46;52.62
54290;BME280;40196;39.774;2.728;2022-09-09T09:34:56;101169.59;;;30.53;52.24
54290;BME280;40196;39.774;2.728;2022-09-09T09:37:34;101170.59;;;30.47;52.38
54290;BME280;40196;39.774;2.728;2022-09-09T09:40:13;101167.38;;;30.50;52.34
54290;BME280;40196;39.774;2.728;2022-09-09T09:42:48;101173.72;;;30.56;51.63
54290;BME280;40196;39.774;2.728;2022-09-09T09:47:45;101174.78;;;30.55;51.80
54290;BME280;40196;39.774;2.728;2022-09-09T09:50:18;101175.97;;;30.64;52.13
54290;BME280;40196;39.774;2.728;2022-09-09T09:52:52;101178.22;;;30.72;50.89
54290;BME280;40196;39.774;2.728;2022-09-09T09:55:18;101176.13;;;30.79;50.68
54290;BME280;40196;39.774;2.728;2022-09-09T09:57:43;101186.56;;;30.88;51.22
54290;BME280;40196;39.774;2.728;2022-09-09T10:02:39;101173.28;;;30.91;50.42
54290;BME280;40196;39.774;2.728;2022-09-09T10:07:31;101173.09;;;30.98;50.35
54290;BME280;40196;39.774;2.728;2022-09-09T10:09:57;101169.88;;;31.06;49.81
54290;BME280;40196;39.774;2.728;2022-09-09T10:22:28;101176.16;;;31.07;48.88
54290;BME280;40196;39.774;2.728;2022-09-09T10:30:19;101179.81;;;31.17;49.93
54290;BME280;40196;39.774;2.728;2022-09-09T10:32:48;101183.34;;;31.18;50.20
54290;BME280;40196;39.774;2.728;2022-09-09T10:35:27;101182.28;;;31.24;50.54
54290;BME280;40196;39.774;2.728;2022-09-09T10:51:17;101186.38;;;31.54;50.12
54290;BME280;40196;39.774;2.728;2022-09-09T10:53:52;101185.28;;;31.55;49.91
54290;BME280;40196;39.774;2.728;2022-09-09T10:56:19;101190.28;;;31.68;49.81
54290;BME280;40196;39.774;2.728;2022-09-09T11:01:13;101180.16;;;31.63;49.04
54290;BME280;40196;39.774;2.728;2022-09-09T11:03:41;101181.75;;;31.54;50.33
54290;BME280;40196;39.774;2.728;2022-09-09T11:06:14;101179.84;;;31.60;49.99
54290;BME280;40196;39.774;2.728;2022-09-09T11:08:42;101176.97;;;31.72;49.00
54290;BME280;40196;39.774;2.728;2022-09-09T11:13:39;101174.59;;;31.91;48.85
54290;BME280;40196;39.774;2.728;2022-09-09T11:18:45;101169.28;;;32.11;48.59
54290;BME280;40196;39.774;2.728;2022-09-09T11:21:29;101171.50;;;32.19;48.73
54290;BME280;40196;39.774;2.728;2022-09-09T11:24:00;101179.72;;;32.30;48.62
54290;BME280;40196;39.774;2.728;2022-09-09T11:27:14;101174.81;;;32.27;47.52
54290;BME280;40196;39.774;2.728;2022-09-09T11:42:22;101183.59;;;32.44;46.71
54290;BME280;40196;39.774;2.728;2022-09-09T11:44:48;101187.66;;;32.41;47.60
54290;BME280;40196;39.774;2.728;2022-09-09T11:50:06;101189.91;;;32.50;47.83
54290;BME280;40196;39.774;2.728;2022-09-09T11:52:36;101182.84;;;32.59;48.10
54290;BME280;40196;39.774;2.728;2022-09-09T11:55:19;101188.34;;;32.69;47.34
54290;BME280;40196;39.774;2.728;2022-09-09T11:57:48;101186.44;;;32.80;46.83
54290;BME280;40196;39.774;2.728;2022-09-09T12:00:35;101187.84;;;32.93;46.01
54290;BME280;40196;39.774;2.728;2022-09-09T12:03:02;101188.91;;;32.92;46.36
54290;BME280;40196;39.774;2.728;2022-09-09T12:05:40;101191.13;;;32.85;46.53
54290;BME280;40196;39.774;2.728;2022-09-09T12:08:08;101185.66;;;32.90;46.50
54290;BME280;40196;39.774;2.728;2022-09-09T12:10:36;101186.47;;;32.95;46.15
54290;BME280;40196;39.774;2.728;2022-09-09T12:15:47;101187.00;;;32.87;46.63
54290;BME280;40196;39.774;2.728;2022-09-09T12:18:14;101189.75;;;32.97;46.06
54290;BME280;40196;39.774;2.728;2022-09-09T12:24:13;101184.88;;;33.25;45.19
54290;BME280;40196;39.774;2.728;2022-09-09T12:31:20;101169.84;;;33.38;45.24
54290;BME280;40196;39.774;2.728;2022-09-09T12:33:48;101184.03;;;33.55;44.75
54290;BME280;40196;39.774;2.728;2022-09-09T12:36:18;101181.00;;;33.62;44.81
54290;BME280;40196;39.774;2.728;2022-09-09T12:38:45;101173.09;;;33.55;44.41
54290;BME280;40196;39.774;2.728;2022-09-09T12:41:20;101166.56;;;33.67;44.99
54290;BME280;40196;39.774;2.728;2022-09-09T12:43:45;101165.72;;;33.76;44.02
54290;BME280;40196;39.774;2.728;2022-09-09T12:46:15;101137.56;;;33.50;43.91
54290;BME280;40196;39.774;2.728;2022-09-09T12:48:43;101175.03;;;33.65;44.42
54290;BME280;40196;39.774;2.728;2022-09-09T12:51:18;101166.53;;;33.77;44.13
54290;BME280;40196;39.774;2.728;2022-09-09T12:53:44;101160.16;;;33.97;44.31
54290;BME280;40196;39.774;2.728;2022-09-09T12:56:17;101157.41;;;34.07;43.79
54290;BME280;40196;39.774;2.728;2022-09-09T12:58:45;101162.25;;;34.26;43.68
54290;BME280;40196;39.774;2.728;2022-09-09T13:01:18;101159.91;;;34.59;42.21
54290;BME280;40196;39.774;2.728;2022-09-09T13:03:45;101161.25;;;34.61;42.23
54290;BME280;40196;39.774;2.728;2022-09-09T13:06:13;101160.91;;;34.73;41.94
54290;BME280;40196;39.774;2.728;2022-09-09T13:08:39;101154.81;;;34.86;41.37
54290;BME280;40196;39.774;2.728;2022-09-09T13:11:13;101156.97;;;34.89;41.44
54290;BME280;40196;39.774;2.728;2022-09-09T13:13:41;101165.63;;;35.07;41.16
54290;BME280;40196;39.774;2.728;2022-09-09T13:16:18;101161.09;;;35.26;40.70
54290;BME280;40196;39.774;2.728;2022-09-09T13:18:44;101158.38;;;35.50;40.02
54290;BME280;40196;39.774;2.728;2022-09-09T13:21:10;101161.75;;;35.71;38.59
54290;BME280;40196;39.774;2.728;2022-09-09T13:23:36;101157.41;;;35.65;39.42
54290;BME280;40196;39.774;2.728;2022-09-09T13:28:46;101159.78;;;36.25;37.95
54290;BME280;40196;39.774;2.728;2022-09-09T13:31:23;101157.22;;;36.72;37.26
54290;BME280;40196;39.774;2.728;2022-09-09T13:33:48;101170.81;;;36.58;37.68
54290;BME280;40196;39.774;2.728;2022-09-09T13:36:14;101169.91;;;37.01;36.63
54290;BME280;40196;39.774;2.728;2022-09-09T13:41:19;101151.16;;;38.24;34.77
54290;BME280;40196;39.774;2.728;2022-09-09T13:43:47;101156.88;;;38.64;33.62
54290;BME280;40196;39.774;2.728;2022-09-09T13:46:31;101160.41;;;39.01;32.87
54290;BME280;40196;39.774;2.728;2022-09-09T13:48:58;101159.38;;;39.82;31.24
54290;BME280;40196;39.774;2.728;2022-09-09T13:51:29;101149.88;;;40.06;31.74
54290;BME280;40196;39.774;2.728;2022-09-09T13:53:56;101141.47;;;40.72;30.38
54290;BME280;40196;39.774;2.728;2022-09-09T13:56:22;101131.78;;;41.30;29.58
54290;BME280;40196;39.774;2.728;2022-09-09T13:58:48;101134.25;;;41.70;28.46
54290;BME280;40196;39.774;2.728;2022-09-09T14:01:13;101135.47;;;42.11;28.27
54290;BME280;40196;39.774;2.728;2022-09-09T14:03:38;101132.00;;;42.78;27.73
54290;BME280;40196;39.774;2.728;2022-09-09T14:06:04;101129.81;;;43.29;25.88
54290;BME280;40196;39.774;2.728;2022-09-09T14:08:29;101124.91;;;43.01;26.03
54290;BME280;40196;39.774;2.728;2022-09-09T14:11:02;101132.00;;;42.78;26.46
54290;BME280;40196;39.774;2.728;2022-09-09T14:13:27;101127.53;;;43.56;26.39
54290;BME280;40196;39.774;2.728;2022-09-09T14:15:52;101137.91;;;44.08;25.56
54290;BME280;40196;39.774;2.728;2022-09-09T14:18:18;101131.69;;;44.39;24.93
54290;BME280;40196;39.774;2.728;2022-09-09T14:20:44;101135.69;;;44.82;23.62
54290;BME280;40196;39.774;2.728;2022-09-09T14:23:12;101138.06;;;45.12;23.33
54290;BME280;40196;39.774;2.728;2022-09-09T14:25:39;101139.97;;;45.40;23.31
54290;BME280;40196;39.774;2.728;2022-09-09T14:28:04;101138.88;;;46.12;22.46
54290;BME280;40196;39.774;2.728;2022-09-09T14:30:30;101139.38;;;46.76;21.71
54290;BME280;40196;39.774;2.728;2022-09-09T14:32:55;101132.41;;;47.09;21.30
54290;BME280;40196;39.774;2.728;2022-09-09T14:35:20;101146.56;;;47.43;20.76
54290;BME280;40196;39.774;2.728;2022-09-09T14:37:47;101140.63;;;46.98;20.96
54290;BME280;40196;39.774;2.728;2022-09-09T14:40:13;101148.97;;;47.44;20.31
54290;BME280;40196;39.774;2.728;2022-09-09T14:42:39;101150.56;;;47.68;20.32
54290;BME280;40196;39.774;2.728;2022-09-09T14:45:05;101151.31;;;47.65;20.58
54290;BME280;40196;39.774;2.728;2022-09-09T14:47:31;101143.59;;;48.12;19.92
54290;BME280;40196;39.774;2.728;2022-09-09T14:49:56;101139.19;;;48.11;19.99
54290;BME280;40196;39.774;2.728;2022-09-09T14:52:21;101140.06;;;47.58;20.14
54290;BME280;40196;39.774;2.728;2022-09-09T14:54:47;101139.69;;;47.90;19.69
54290;BME280;40196;39.774;2.728;2022-09-09T14:57:12;101130.66;;;48.00;20.11
54290;BME280;40196;39.774;2.728;2022-09-09T14:59:37;101126.09;;;48.18;19.88
54290;BME280;40196;39.774;2.728;2022-09-09T15:02:02;101120.66;;;48.29;19.58
54290;BME280;40196;39.774;2.728;2022-09-09T15:04:29;101116.97;;;48.55;19.24
54290;BME280;40196;39.774;2.728;2022-09-09T15:06:54;101121.41;;;48.26;19.25